sensor_id;sensor_type;location;lat;lon;timestamp;P1;durP1;ratioP1;P2;durP2;ratioP2
67602;SDS011;54417;47.454;18.918;2023-06-01T00:01:57;8.27;;;5.53;;
67602;SDS011;54417;47.454;18.918;2023-06-01T00:07:04;9.20;;;5.80;;
67602;SDS011;54417;47.454;18.918;2023-06-01T00:12:15;8.40;;;5.72;;
67602;SDS011;54417;47.454;18.918;2023-06-01T00:17:22;8.17;;;5.13;;
67602;SDS011;54417;47.454;18.918;2023-06-01T00:22:29;9.48;;;5.72;;
67602;SDS011;54417;47.454;18.918;2023-06-01T00:27:40;10.45;;;5.93;;
67602;SDS011;54417;47.454;18.918;2023-06-01T00:32:47;10.13;;;5.75;;
67602;SDS011;54417;47.454;18.918;2023-06-01T00:37:55;8.93;;;5.03;;
67602;SDS011;54417;47.454;18.918;2023-06-01T00:43:05;6.72;;;5.45;;
67602;SDS011;54417;47.454;18.918;2023-06-01T00:53:29;6.00;;;5.00;;
67602;SDS011;54417;47.454;18.918;2023-06-01T00:58:39;6.28;;;5.00;;
67602;SDS011;54417;47.454;18.918;2023-06-01T01:03:47;7.28;;;5.35;;
67602;SDS011;54417;47.454;18.918;2023-06-01T01:09:08;7.60;;;4.80;;
67602;SDS011;54417;47.454;18.918;2023-06-01T01:14:28;14.13;;;5.60;;
67602;SDS011;54417;47.454;18.918;2023-06-01T01:25:20;8.88;;;4.63;;
67602;SDS011;54417;47.454;18.918;2023-06-01T01:30:35;7.72;;;4.85;;
67602;SDS011;54417;47.454;18.918;2023-06-01T01:35:44;7.82;;;4.60;;
67602;SDS011;54417;47.454;18.918;2023-06-01T01:40:52;9.50;;;4.78;;
67602;SDS011;54417;47.454;18.918;2023-06-01T01:46:05;6.63;;;4.45;;
67602;SDS011;54417;47.454;18.918;2023-06-01T01:51:20;9.73;;;5.07;;
67602;SDS011;54417;47.454;18.918;2023-06-01T01:56:34;5.35;;;4.60;;
67602;SDS011;54417;47.454;18.918;2023-06-01T02:01:45;7.47;;;4.78;;
67602;SDS011;54417;47.454;18.918;2023-06-01T02:06:53;9.02;;;4.13;;
67602;SDS011;54417;47.454;18.918;2023-06-01T02:11:59;6.00;;;4.30;;
67602;SDS011;54417;47.454;18.918;2023-06-01T02:17:10;6.78;;;4.90;;
67602;SDS011;54417;47.454;18.918;2023-06-01T02:22:19;8.93;;;4.70;;
67602;SDS011;54417;47.454;18.918;2023-06-01T02:27:26;6.47;;;4.30;;
67602;SDS011;54417;47.454;18.918;2023-06-01T02:32:35;7.25;;;4.10;;
67602;SDS011;54417;47.454;18.918;2023-06-01T02:37:42;9.27;;;4.43;;
67602;SDS011;54417;47.454;18.918;2023-06-01T02:42:49;8.52;;;4.88;;
67602;SDS011;54417;47.454;18.918;2023-06-01T02:48:00;6.50;;;4.57;;
67602;SDS011;54417;47.454;18.918;2023-06-01T02:53:07;7.82;;;4.68;;
67602;SDS011;54417;47.454;18.918;2023-06-01T02:58:13;11.48;;;4.28;;
67602;SDS011;54417;47.454;18.918;2023-06-01T03:03:35;16.90;;;4.78;;
67602;SDS011;54417;47.454;18.918;2023-06-01T03:08:43;6.63;;;4.78;;
67602;SDS011;54417;47.454;18.918;2023-06-01T03:14:10;17.63;;;5.25;;
67602;SDS011;54417;47.454;18.918;2023-06-01T03:19:20;8.13;;;4.53;;
67602;SDS011;54417;47.454;18.918;2023-06-01T03:24:33;8.32;;;4.72;;
67602;SDS011;54417;47.454;18.918;2023-06-01T03:29:45;7.15;;;4.45;;
67602;SDS011;54417;47.454;18.918;2023-06-01T03:34:57;9.80;;;4.57;;
67602;SDS011;54417;47.454;18.918;2023-06-01T03:40:04;5.97;;;4.28;;
67602;SDS011;54417;47.454;18.918;2023-06-01T03:45:14;6.78;;;4.07;;
67602;SDS011;54417;47.454;18.918;2023-06-01T03:50:27;7.85;;;4.50;;
67602;SDS011;54417;47.454;18.918;2023-06-01T03:55:36;7.15;;;3.72;;
67602;SDS011;54417;47.454;18.918;2023-06-01T04:01:06;5.50;;;3.55;;
67602;SDS011;54417;47.454;18.918;2023-06-01T04:06:18;9.48;;;3.65;;
67602;SDS011;54417;47.454;18.918;2023-06-01T04:11:25;6.90;;;4.03;;
67602;SDS011;54417;47.454;18.918;2023-06-01T04:16:32;7.88;;;3.83;;
67602;SDS011;54417;47.454;18.918;2023-06-01T04:21:47;5.07;;;3.40;;
67602;SDS011;54417;47.454;18.918;2023-06-01T04:26:56;7.97;;;3.83;;
67602;SDS011;54417;47.454;18.918;2023-06-01T04:32:04;5.82;;;3.40;;
67602;SDS011;54417;47.454;18.918;2023-06-01T04:37:16;6.85;;;3.63;;
67602;SDS011;54417;47.454;18.918;2023-06-01T04:42:34;5.50;;;3.88;;
67602;SDS011;54417;47.454;18.918;2023-06-01T04:47:42;6.97;;;3.47;;
67602;SDS011;54417;47.454;18.918;2023-06-01T04:53:07;4.65;;;3.45;;
67602;SDS011;54417;47.454;18.918;2023-06-01T04:58:15;6.97;;;4.07;;
67602;SDS011;54417;47.454;18.918;2023-06-01T05:03:23;7.32;;;3.67;;
67602;SDS011;54417;47.454;18.918;2023-06-01T05:08:30;8.70;;;3.72;;
67602;SDS011;54417;47.454;18.918;2023-06-01T05:13:38;9.27;;;3.42;;
67602;SDS011;54417;47.454;18.918;2023-06-01T05:18:47;6.80;;;3.10;;
67602;SDS011;54417;47.454;18.918;2023-06-01T05:23:58;7.18;;;3.63;;
67602;SDS011;54417;47.454;18.918;2023-06-01T05:29:05;10.90;;;3.95;;
67602;SDS011;54417;47.454;18.918;2023-06-01T05:34:13;10.90;;;3.42;;
67602;SDS011;54417;47.454;18.918;2023-06-01T05:39:23;12.55;;;3.88;;
67602;SDS011;54417;47.454;18.918;2023-06-01T05:44:32;9.13;;;3.42;;
67602;SDS011;54417;47.454;18.918;2023-06-01T05:49:39;8.02;;;2.83;;
67602;SDS011;54417;47.454;18.918;2023-06-01T06:00:04;10.63;;;2.80;;
67602;SDS011;54417;47.454;18.918;2023-06-01T06:05:23;5.75;;;2.40;;
67602;SDS011;54417;47.454;18.918;2023-06-01T06:10:32;3.58;;;2.30;;
67602;SDS011;54417;47.454;18.918;2023-06-01T06:15:45;7.97;;;2.90;;
67602;SDS011;54417;47.454;18.918;2023-06-01T06:26:02;8.02;;;2.88;;
67602;SDS011;54417;47.454;18.918;2023-06-01T06:31:11;7.32;;;2.55;;
67602;SDS011;54417;47.454;18.918;2023-06-01T06:36:27;9.13;;;2.70;;
67602;SDS011;54417;47.454;18.918;2023-06-01T06:41:34;8.48;;;2.90;;
67602;SDS011;54417;47.454;18.918;2023-06-01T06:46:44;12.38;;;2.88;;
67602;SDS011;54417;47.454;18.918;2023-06-01T06:51:52;8.18;;;3.03;;
67602;SDS011;54417;47.454;18.918;2023-06-01T06:56:59;6.18;;;2.67;;
67602;SDS011;54417;47.454;18.918;2023-06-01T07:02:09;8.55;;;2.78;;
67602;SDS011;54417;47.454;18.918;2023-06-01T07:07:16;7.88;;;3.85;;
67602;SDS011;54417;47.454;18.918;2023-06-01T07:12:24;7.22;;;3.10;;
67602;SDS011;54417;47.454;18.918;2023-06-01T07:17:33;9.48;;;3.53;;
67602;SDS011;54417;47.454;18.918;2023-06-01T07:22:43;9.13;;;2.72;;
67602;SDS011;54417;47.454;18.918;2023-06-01T07:27:51;11.95;;;3.13;;
67602;SDS011;54417;47.454;18.918;2023-06-01T07:33:03;10.70;;;2.83;;
67602;SDS011;54417;47.454;18.918;2023-06-01T07:38:12;10.23;;;3.10;;
67602;SDS011;54417;47.454;18.918;2023-06-01T07:43:17;12.77;;;2.80;;
67602;SDS011;54417;47.454;18.918;2023-06-01T07:48:28;18.10;;;3.70;;
67602;SDS011;54417;47.454;18.918;2023-06-01T07:53:39;7.47;;;2.40;;
67602;SDS011;54417;47.454;18.918;2023-06-01T07:58:47;11.23;;;2.88;;
67602;SDS011;54417;47.454;18.918;2023-06-01T08:04:00;7.55;;;2.40;;
67602;SDS011;54417;47.454;18.918;2023-06-01T08:09:08;6.38;;;2.38;;
67602;SDS011;54417;47.454;18.918;2023-06-01T08:14:14;7.13;;;2.67;;
67602;SDS011;54417;47.454;18.918;2023-06-01T08:19:24;7.68;;;2.85;;
67602;SDS011;54417;47.454;18.918;2023-06-01T08:29:38;4.43;;;2.60;;
67602;SDS011;54417;47.454;18.918;2023-06-01T08:34:48;9.73;;;2.50;;
67602;SDS011;54417;47.454;18.918;2023-06-01T08:39:55;5.75;;;2.83;;
67602;SDS011;54417;47.454;18.918;2023-06-01T08:45:04;5.55;;;2.80;;
67602;SDS011;54417;47.454;18.918;2023-06-01T08:50:15;7.00;;;3.03;;
67602;SDS011;54417;47.454;18.918;2023-06-01T08:55:25;7.05;;;2.60;;
67602;SDS011;54417;47.454;18.918;2023-06-01T09:00:31;8.90;;;2.60;;
67602;SDS011;54417;47.454;18.918;2023-06-01T09:05:43;8.48;;;2.75;;
67602;SDS011;54417;47.454;18.918;2023-06-01T09:10:50;8.15;;;2.80;;
67602;SDS011;54417;47.454;18.918;2023-06-01T09:15:57;5.72;;;2.60;;
67602;SDS011;54417;47.454;18.918;2023-06-01T09:21:12;6.07;;;2.63;;
67602;SDS011;54417;47.454;18.918;2023-06-01T09:26:25;4.82;;;2.95;;
67602;SDS011;54417;47.454;18.918;2023-06-01T09:31:36;6.50;;;3.05;;
67602;SDS011;54417;47.454;18.918;2023-06-01T09:36:47;6.97;;;3.03;;
67602;SDS011;54417;47.454;18.918;2023-06-01T09:41:56;9.38;;;3.05;;
67602;SDS011;54417;47.454;18.918;2023-06-01T09:47:05;7.22;;;2.70;;
67602;SDS011;54417;47.454;18.918;2023-06-01T09:52:17;6.20;;;2.97;;
67602;SDS011;54417;47.454;18.918;2023-06-01T09:57:25;6.10;;;3.25;;
67602;SDS011;54417;47.454;18.918;2023-06-01T10:02:33;5.97;;;3.10;;
67602;SDS011;54417;47.454;18.918;2023-06-01T10:12:59;6.35;;;3.03;;
67602;SDS011;54417;47.454;18.918;2023-06-01T10:18:06;6.03;;;2.97;;
67602;SDS011;54417;47.454;18.918;2023-06-01T10:23:14;8.25;;;3.80;;
67602;SDS011;54417;47.454;18.918;2023-06-01T10:28:37;8.50;;;3.75;;
67602;SDS011;54417;47.454;18.918;2023-06-01T10:33:53;5.25;;;3.28;;
67602;SDS011;54417;47.454;18.918;2023-06-01T10:39:20;8.65;;;3.00;;
67602;SDS011;54417;47.454;18.918;2023-06-01T10:44:49;8.38;;;3.40;;
67602;SDS011;54417;47.454;18.918;2023-06-01T10:50:08;7.63;;;3.40;;
67602;SDS011;54417;47.454;18.918;2023-06-01T11:00:45;5.95;;;3.15;;
67602;SDS011;54417;47.454;18.918;2023-06-01T11:05:53;6.63;;;3.33;;
67602;SDS011;54417;47.454;18.918;2023-06-01T11:11:00;10.60;;;3.10;;
67602;SDS011;54417;47.454;18.918;2023-06-01T11:21:41;5.50;;;3.28;;
67602;SDS011;54417;47.454;18.918;2023-06-01T11:26:49;7.72;;;3.15;;
67602;SDS011;54417;47.454;18.918;2023-06-01T11:31:59;8.02;;;2.75;;
67602;SDS011;54417;47.454;18.918;2023-06-01T11:37:12;6.70;;;3.28;;
67602;SDS011;54417;47.454;18.918;2023-06-01T11:42:22;6.75;;;3.33;;
67602;SDS011;54417;47.454;18.918;2023-06-01T11:47:32;5.18;;;3.33;;
67602;SDS011;54417;47.454;18.918;2023-06-01T11:52:44;9.77;;;3.35;;
67602;SDS011;54417;47.454;18.918;2023-06-01T11:57:50;5.63;;;3.38;;
67602;SDS011;54417;47.454;18.918;2023-06-01T12:03:09;7.50;;;3.08;;
67602;SDS011;54417;47.454;18.918;2023-06-01T12:13:24;4.95;;;3.40;;
67602;SDS011;54417;47.454;18.918;2023-06-01T12:18:38;7.30;;;3.30;;
67602;SDS011;54417;47.454;18.918;2023-06-01T12:23:48;3.83;;;3.08;;
67602;SDS011;54417;47.454;18.918;2023-06-01T12:28:55;11.38;;;3.15;;
67602;SDS011;54417;47.454;18.918;2023-06-01T12:34:14;10.38;;;3.22;;
67602;SDS011;54417;47.454;18.918;2023-06-01T12:39:31;5.50;;;3.15;;
67602;SDS011;54417;47.454;18.918;2023-06-01T12:44:52;5.95;;;3.45;;
67602;SDS011;54417;47.454;18.918;2023-06-01T12:50:11;4.85;;;2.92;;
67602;SDS011;54417;47.454;18.918;2023-06-01T12:55:19;6.00;;;3.20;;
67602;SDS011;54417;47.454;18.918;2023-06-01T13:00:26;7.85;;;3.47;;
67602;SDS011;54417;47.454;18.918;2023-06-01T13:05:56;4.30;;;3.28;;
67602;SDS011;54417;47.454;18.918;2023-06-01T13:11:04;6.88;;;3.55;;
67602;SDS011;54417;47.454;18.918;2023-06-01T13:16:14;4.18;;;3.17;;
67602;SDS011;54417;47.454;18.918;2023-06-01T13:21:24;8.90;;;3.40;;
67602;SDS011;54417;47.454;18.918;2023-06-01T13:26:31;8.93;;;3.95;;
67602;SDS011;54417;47.454;18.918;2023-06-01T13:31:38;5.80;;;3.55;;
67602;SDS011;54417;47.454;18.918;2023-06-01T13:36:49;5.15;;;3.67;;
67602;SDS011;54417;47.454;18.918;2023-06-01T13:41:57;8.18;;;3.53;;
67602;SDS011;54417;47.454;18.918;2023-06-01T13:47:04;7.60;;;4.18;;
67602;SDS011;54417;47.454;18.918;2023-06-01T13:52:14;4.55;;;3.78;;
67602;SDS011;54417;47.454;18.918;2023-06-01T13:57:21;7.18;;;3.67;;
67602;SDS011;54417;47.454;18.918;2023-06-01T14:02:26;5.95;;;3.78;;
67602;SDS011;54417;47.454;18.918;2023-06-01T14:07:37;4.68;;;3.70;;
67602;SDS011;54417;47.454;18.918;2023-06-01T14:12:44;6.05;;;3.90;;
67602;SDS011;54417;47.454;18.918;2023-06-01T14:17:51;5.72;;;3.60;;
67602;SDS011;54417;47.454;18.918;2023-06-01T14:23:02;8.48;;;3.33;;
67602;SDS011;54417;47.454;18.918;2023-06-01T14:28:07;7.45;;;3.42;;
67602;SDS011;54417;47.454;18.918;2023-06-01T14:33:15;4.53;;;3.38;;
67602;SDS011;54417;47.454;18.918;2023-06-01T14:38:24;6.82;;;3.55;;
67602;SDS011;54417;47.454;18.918;2023-06-01T14:43:31;7.05;;;3.55;;
67602;SDS011;54417;47.454;18.918;2023-06-01T14:48:40;5.78;;;3.53;;
67602;SDS011;54417;47.454;18.918;2023-06-01T14:53:52;5.07;;;3.55;;
67602;SDS011;54417;47.454;18.918;2023-06-01T14:58:59;6.72;;;3.38;;
67602;SDS011;54417;47.454;18.918;2023-06-01T15:04:06;5.05;;;3.90;;
67602;SDS011;54417;47.454;18.918;2023-06-01T15:09:19;10.55;;;3.20;;
67602;SDS011;54417;47.454;18.918;2023-06-01T15:14:27;7.80;;;3.53;;
67602;SDS011;54417;47.454;18.918;2023-06-01T15:19:33;6.25;;;3.08;;
67602;SDS011;54417;47.454;18.918;2023-06-01T15:24:44;7.05;;;3.78;;
67602;SDS011;54417;47.454;18.918;2023-06-01T15:29:52;6.20;;;3.95;;
67602;SDS011;54417;47.454;18.918;2023-06-01T15:34:59;4.67;;;3.50;;
67602;SDS011;54417;47.454;18.918;2023-06-01T15:40:13;6.22;;;3.92;;
67602;SDS011;54417;47.454;18.918;2023-06-01T15:45:20;6.35;;;3.40;;
67602;SDS011;54417;47.454;18.918;2023-06-01T15:50:28;10.23;;;4.00;;
67602;SDS011;54417;47.454;18.918;2023-06-01T15:55:38;8.23;;;3.80;;
67602;SDS011;54417;47.454;18.918;2023-06-01T16:00:45;4.90;;;4.07;;
67602;SDS011;54417;47.454;18.918;2023-06-01T16:06:08;8.43;;;4.00;;
67602;SDS011;54417;47.454;18.918;2023-06-01T16:11:20;4.82;;;3.40;;
67602;SDS011;54417;47.454;18.918;2023-06-01T16:16:28;5.53;;;3.42;;
67602;SDS011;54417;47.454;18.918;2023-06-01T16:21:35;7.45;;;4.05;;
67602;SDS011;54417;47.454;18.918;2023-06-01T16:26:46;9.52;;;3.88;;
67602;SDS011;54417;47.454;18.918;2023-06-01T16:31:55;8.98;;;3.80;;
67602;SDS011;54417;47.454;18.918;2023-06-01T16:37:00;6.20;;;3.72;;
67602;SDS011;54417;47.454;18.918;2023-06-01T16:42:10;6.95;;;3.67;;
67602;SDS011;54417;47.454;18.918;2023-06-01T16:47:17;5.50;;;3.50;;
67602;SDS011;54417;47.454;18.918;2023-06-01T16:52:24;7.32;;;3.78;;
67602;SDS011;54417;47.454;18.918;2023-06-01T16:57:35;8.98;;;3.80;;
67602;SDS011;54417;47.454;18.918;2023-06-01T17:02:45;6.97;;;3.60;;
67602;SDS011;54417;47.454;18.918;2023-06-01T17:07:53;5.00;;;3.58;;
67602;SDS011;54417;47.454;18.918;2023-06-01T17:13:04;7.78;;;3.90;;
67602;SDS011;54417;47.454;18.918;2023-06-01T17:18:13;9.05;;;4.43;;
67602;SDS011;54417;47.454;18.918;2023-06-01T17:23:22;9.55;;;3.90;;
67602;SDS011;54417;47.454;18.918;2023-06-01T17:28:33;11.18;;;4.05;;
67602;SDS011;54417;47.454;18.918;2023-06-01T17:33:40;8.38;;;3.53;;
67602;SDS011;54417;47.454;18.918;2023-06-01T17:38:46;8.50;;;4.28;;
67602;SDS011;54417;47.454;18.918;2023-06-01T17:44:19;5.13;;;3.65;;
67602;SDS011;54417;47.454;18.918;2023-06-01T17:49:25;8.48;;;4.07;;
67602;SDS011;54417;47.454;18.918;2023-06-01T17:54:41;7.90;;;4.25;;
67602;SDS011;54417;47.454;18.918;2023-06-01T17:59:51;7.50;;;3.78;;
67602;SDS011;54417;47.454;18.918;2023-06-01T18:04:59;7.93;;;4.15;;
67602;SDS011;54417;47.454;18.918;2023-06-01T18:10:09;5.10;;;4.18;;
67602;SDS011;54417;47.454;18.918;2023-06-01T18:15:19;14.35;;;5.20;;
67602;SDS011;54417;47.454;18.918;2023-06-01T18:20:27;9.63;;;4.88;;
67602;SDS011;54417;47.454;18.918;2023-06-01T18:25:34;7.75;;;4.63;;
67602;SDS011;54417;47.454;18.918;2023-06-01T18:30:43;10.27;;;4.50;;
67602;SDS011;54417;47.454;18.918;2023-06-01T18:35:54;7.30;;;3.72;;
67602;SDS011;54417;47.454;18.918;2023-06-01T18:41:05;7.68;;;4.30;;
67602;SDS011;54417;47.454;18.918;2023-06-01T18:46:15;9.98;;;5.47;;
67602;SDS011;54417;47.454;18.918;2023-06-01T18:51:25;10.52;;;4.93;;
67602;SDS011;54417;47.454;18.918;2023-06-01T18:56:37;9.60;;;4.57;;
67602;SDS011;54417;47.454;18.918;2023-06-01T19:01:49;7.20;;;4.67;;
67602;SDS011;54417;47.454;18.918;2023-06-01T19:06:56;8.25;;;5.03;;
67602;SDS011;54417;47.454;18.918;2023-06-01T19:12:04;11.57;;;5.07;;
67602;SDS011;54417;47.454;18.918;2023-06-01T19:17:14;16.17;;;5.13;;
67602;SDS011;54417;47.454;18.918;2023-06-01T19:27:31;6.55;;;5.03;;
67602;SDS011;54417;47.454;18.918;2023-06-01T19:32:41;9.27;;;5.22;;
67602;SDS011;54417;47.454;18.918;2023-06-01T19:37:50;5.47;;;4.53;;
67602;SDS011;54417;47.454;18.918;2023-06-01T19:43:01;8.27;;;4.97;;
67602;SDS011;54417;47.454;18.918;2023-06-01T19:53:28;9.10;;;5.47;;
67602;SDS011;54417;47.454;18.918;2023-06-01T20:03:42;7.80;;;5.38;;
67602;SDS011;54417;47.454;18.918;2023-06-01T20:08:52;8.90;;;5.50;;
67602;SDS011;54417;47.454;18.918;2023-06-01T20:14:10;8.65;;;5.63;;
67602;SDS011;54417;47.454;18.918;2023-06-01T20:19:16;10.67;;;5.73;;
67602;SDS011;54417;47.454;18.918;2023-06-01T20:24:27;12.73;;;5.60;;
67602;SDS011;54417;47.454;18.918;2023-06-01T20:29:35;10.13;;;6.05;;
67602;SDS011;54417;47.454;18.918;2023-06-01T20:34:44;11.35;;;5.85;;
67602;SDS011;54417;47.454;18.918;2023-06-01T20:45:03;7.45;;;6.60;;
67602;SDS011;54417;47.454;18.918;2023-06-01T20:50:11;11.07;;;6.70;;
67602;SDS011;54417;47.454;18.918;2023-06-01T20:55:25;9.88;;;5.95;;
67602;SDS011;54417;47.454;18.918;2023-06-01T21:00:35;11.43;;;6.03;;
67602;SDS011;54417;47.454;18.918;2023-06-01T21:05:42;17.23;;;5.75;;
67602;SDS011;54417;47.454;18.918;2023-06-01T21:10:49;10.82;;;6.75;;
67602;SDS011;54417;47.454;18.918;2023-06-01T21:16:00;8.48;;;5.82;;
67602;SDS011;54417;47.454;18.918;2023-06-01T21:21:07;10.25;;;6.18;;
67602;SDS011;54417;47.454;18.918;2023-06-01T21:26:15;9.75;;;5.93;;
67602;SDS011;54417;47.454;18.918;2023-06-01T21:31:23;6.40;;;5.70;;
67602;SDS011;54417;47.454;18.918;2023-06-01T21:36:30;10.10;;;5.32;;
67602;SDS011;54417;47.454;18.918;2023-06-01T21:41:38;7.80;;;6.18;;
67602;SDS011;54417;47.454;18.918;2023-06-01T21:46:49;9.63;;;5.75;;
67602;SDS011;54417;47.454;18.918;2023-06-01T21:51:56;8.00;;;5.65;;
67602;SDS011;54417;47.454;18.918;2023-06-01T21:57:07;10.00;;;6.25;;
67602;SDS011;54417;47.454;18.918;2023-06-01T22:02:15;8.98;;;6.03;;
67602;SDS011;54417;47.454;18.918;2023-06-01T22:07:23;10.05;;;6.35;;
67602;SDS011;54417;47.454;18.918;2023-06-01T22:12:32;9.52;;;5.90;;
67602;SDS011;54417;47.454;18.918;2023-06-01T22:17:42;11.00;;;6.45;;
67602;SDS011;54417;47.454;18.918;2023-06-01T22:22:47;7.05;;;5.68;;
67602;SDS011;54417;47.454;18.918;2023-06-01T22:27:55;11.88;;;6.75;;
67602;SDS011;54417;47.454;18.918;2023-06-01T22:33:05;7.28;;;5.43;;
67602;SDS011;54417;47.454;18.918;2023-06-01T22:38:12;15.15;;;5.75;;
67602;SDS011;54417;47.454;18.918;2023-06-01T22:43:19;11.05;;;5.72;;
67602;SDS011;54417;47.454;18.918;2023-06-01T22:48:29;8.82;;;6.03;;
67602;SDS011;54417;47.454;18.918;2023-06-01T22:53:37;10.65;;;5.82;;
67602;SDS011;54417;47.454;18.918;2023-06-01T22:58:44;14.27;;;6.22;;
67602;SDS011;54417;47.454;18.918;2023-06-01T23:03:55;13.35;;;6.03;;
67602;SDS011;54417;47.454;18.918;2023-06-01T23:09:02;9.02;;;6.25;;
67602;SDS011;54417;47.454;18.918;2023-06-01T23:14:08;8.25;;;5.88;;
67602;SDS011;54417;47.454;18.918;2023-06-01T23:19:20;7.15;;;6.03;;
67602;SDS011;54417;47.454;18.918;2023-06-01T23:24:27;15.82;;;5.75;;
67602;SDS011;54417;47.454;18.918;2023-06-01T23:29:35;10.07;;;6.13;;
67602;SDS011;54417;47.454;18.918;2023-06-01T23:34:44;6.78;;;5.93;;
67602;SDS011;54417;47.454;18.918;2023-06-01T23:39:49;9.45;;;6.03;;
67602;SDS011;54417;47.454;18.918;2023-06-01T23:44:56;7.15;;;5.93;;
67602;SDS011;54417;47.454;18.918;2023-06-01T23:50:07;8.77;;;6.00;;
67602;SDS011;54417;47.454;18.918;2023-06-01T23:55:15;8.32;;;6.40;;
